sensor_id;sensor_type;location;lat;lon;timestamp;P1;durP1;ratioP1;P2;durP2;ratioP2
1651;SDS011;823;49.028;8.454;2023-02-21T00:02:51;5.97;;;2.80;;
1651;SDS011;823;49.028;8.454;2023-02-21T00:08:10;5.80;;;2.60;;
1651;SDS011;823;49.028;8.454;2023-02-21T00:13:28;9.30;;;3.50;;
1651;SDS011;823;49.028;8.454;2023-02-21T00:18:47;4.10;;;2.27;;
1651;SDS011;823;49.028;8.454;2023-02-21T00:24:06;7.70;;;2.53;;
1651;SDS011;823;49.028;8.454;2023-02-21T00:29:25;4.57;;;3.30;;
1651;SDS011;823;49.028;8.454;2023-02-21T00:34:44;5.10;;;2.43;;
1651;SDS011;823;49.028;8.454;2023-02-21T00:40:03;4.27;;;2.60;;
1651;SDS011;823;49.028;8.454;2023-02-21T00:45:22;3.33;;;2.17;;
1651;SDS011;823;49.028;8.454;2023-02-21T00:50:41;10.20;;;3.20;;
1651;SDS011;823;49.028;8.454;2023-02-21T00:56:00;5.13;;;3.10;;
1651;SDS011;823;49.028;8.454;2023-02-21T01:01:18;10.73;;;2.80;;
1651;SDS011;823;49.028;8.454;2023-02-21T01:06:37;4.07;;;2.60;;
1651;SDS011;823;49.028;8.454;2023-02-21T01:11:56;6.30;;;2.37;;
1651;SDS011;823;49.028;8.454;2023-02-21T01:17:14;7.40;;;3.00;;
1651;SDS011;823;49.028;8.454;2023-02-21T01:22:33;5.60;;;2.20;;
1651;SDS011;823;49.028;8.454;2023-02-21T01:27:53;6.00;;;2.87;;
1651;SDS011;823;49.028;8.454;2023-02-21T01:33:12;5.90;;;2.70;;
1651;SDS011;823;49.028;8.454;2023-02-21T01:38:32;3.83;;;2.43;;
1651;SDS011;823;49.028;8.454;2023-02-21T01:44:03;5.20;;;2.30;;
1651;SDS011;823;49.028;8.454;2023-02-21T01:49:24;6.30;;;2.27;;
1651;SDS011;823;49.028;8.454;2023-02-21T01:54:44;7.03;;;2.90;;
1651;SDS011;823;49.028;8.454;2023-02-21T02:00:06;11.73;;;2.60;;
1651;SDS011;823;49.028;8.454;2023-02-21T02:05:27;10.57;;;2.97;;
1651;SDS011;823;49.028;8.454;2023-02-21T02:10:47;5.10;;;2.60;;
1651;SDS011;823;49.028;8.454;2023-02-21T02:21:28;5.40;;;2.10;;
1651;SDS011;823;49.028;8.454;2023-02-21T02:26:58;8.20;;;2.27;;
1651;SDS011;823;49.028;8.454;2023-02-21T02:32:16;2.80;;;1.70;;
1651;SDS011;823;49.028;8.454;2023-02-21T02:37:48;7.67;;;2.23;;
1651;SDS011;823;49.028;8.454;2023-02-21T02:43:02;16.17;;;2.10;;
1651;SDS011;823;49.028;8.454;2023-02-21T02:48:39;2.90;;;1.93;;
1651;SDS011;823;49.028;8.454;2023-02-21T02:53:43;8.43;;;1.80;;
1651;SDS011;823;49.028;8.454;2023-02-21T02:58:48;7.20;;;2.30;;
1651;SDS011;823;49.028;8.454;2023-02-21T03:14:45;4.90;;;2.10;;
1651;SDS011;823;49.028;8.454;2023-02-21T03:19:50;6.87;;;2.43;;
1651;SDS011;823;49.028;8.454;2023-02-21T03:24:53;3.10;;;2.20;;
1651;SDS011;823;49.028;8.454;2023-02-21T03:29:55;7.20;;;2.10;;
1651;SDS011;823;49.028;8.454;2023-02-21T03:34:59;5.53;;;2.70;;
1651;SDS011;823;49.028;8.454;2023-02-21T03:40:00;5.03;;;2.40;;
1651;SDS011;823;49.028;8.454;2023-02-21T03:45:01;8.13;;;2.20;;
1651;SDS011;823;49.028;8.454;2023-02-21T03:50:02;5.15;;;2.42;;
1651;SDS011;823;49.028;8.454;2023-02-21T03:55:04;6.57;;;2.80;;
1651;SDS011;823;49.028;8.454;2023-02-21T04:00:05;3.27;;;2.53;;
1651;SDS011;823;49.028;8.454;2023-02-21T04:05:06;6.47;;;2.30;;
1651;SDS011;823;49.028;8.454;2023-02-21T04:10:07;4.90;;;3.20;;
1651;SDS011;823;49.028;8.454;2023-02-21T04:15:07;6.80;;;2.60;;
1651;SDS011;823;49.028;8.454;2023-02-21T04:20:09;14.37;;;2.73;;
1651;SDS011;823;49.028;8.454;2023-02-21T04:25:09;4.23;;;2.33;;
1651;SDS011;823;49.028;8.454;2023-02-21T04:30:10;5.97;;;2.67;;
1651;SDS011;823;49.028;8.454;2023-02-21T04:35:10;3.97;;;2.33;;
1651;SDS011;823;49.028;8.454;2023-02-21T04:40:11;4.28;;;2.25;;
1651;SDS011;823;49.028;8.454;2023-02-21T04:45:11;9.60;;;3.27;;
1651;SDS011;823;49.028;8.454;2023-02-21T04:50:12;5.10;;;2.80;;
1651;SDS011;823;49.028;8.454;2023-02-21T04:55:13;5.00;;;2.53;;
1651;SDS011;823;49.028;8.454;2023-02-21T05:00:14;8.57;;;2.93;;
1651;SDS011;823;49.028;8.454;2023-02-21T05:05:15;4.07;;;2.50;;
1651;SDS011;823;49.028;8.454;2023-02-21T05:10:15;8.03;;;2.93;;
1651;SDS011;823;49.028;8.454;2023-02-21T05:15:16;6.00;;;2.63;;
1651;SDS011;823;49.028;8.454;2023-02-21T05:20:17;8.20;;;3.20;;
1651;SDS011;823;49.028;8.454;2023-02-21T05:25:18;7.20;;;3.00;;
1651;SDS011;823;49.028;8.454;2023-02-21T05:30:21;9.17;;;3.73;;
1651;SDS011;823;49.028;8.454;2023-02-21T05:35:22;4.53;;;3.20;;
1651;SDS011;823;49.028;8.454;2023-02-21T05:40:23;6.05;;;3.08;;
1651;SDS011;823;49.028;8.454;2023-02-21T05:45:23;6.88;;;3.35;;
1651;SDS011;823;49.028;8.454;2023-02-21T05:50:23;13.53;;;3.80;;
1651;SDS011;823;49.028;8.454;2023-02-21T05:55:24;10.83;;;4.40;;
1651;SDS011;823;49.028;8.454;2023-02-21T06:00:26;10.93;;;3.57;;
1651;SDS011;823;49.028;8.454;2023-02-21T06:05:28;6.70;;;3.57;;
1651;SDS011;823;49.028;8.454;2023-02-21T06:10:28;9.85;;;4.18;;
1651;SDS011;823;49.028;8.454;2023-02-21T06:15:28;7.13;;;4.10;;
1651;SDS011;823;49.028;8.454;2023-02-21T06:20:29;7.67;;;4.03;;
1651;SDS011;823;49.028;8.454;2023-02-21T06:25:29;6.65;;;3.83;;
1651;SDS011;823;49.028;8.454;2023-02-21T06:30:29;7.93;;;3.97;;
1651;SDS011;823;49.028;8.454;2023-02-21T06:35:30;7.03;;;4.05;;
1651;SDS011;823;49.028;8.454;2023-02-21T06:40:30;7.82;;;4.40;;
1651;SDS011;823;49.028;8.454;2023-02-21T06:45:30;7.55;;;3.78;;
1651;SDS011;823;49.028;8.454;2023-02-21T06:50:31;6.47;;;3.77;;
1651;SDS011;823;49.028;8.454;2023-02-21T06:55:31;9.25;;;4.35;;
1651;SDS011;823;49.028;8.454;2023-02-21T07:00:31;10.23;;;3.80;;
1651;SDS011;823;49.028;8.454;2023-02-21T07:05:32;12.85;;;5.20;;
1651;SDS011;823;49.028;8.454;2023-02-21T07:10:33;8.23;;;4.33;;
1651;SDS011;823;49.028;8.454;2023-02-21T07:15:34;14.07;;;5.00;;
1651;SDS011;823;49.028;8.454;2023-02-21T07:20:34;9.38;;;4.85;;
1651;SDS011;823;49.028;8.454;2023-02-21T07:25:34;11.87;;;5.10;;
1651;SDS011;823;49.028;8.454;2023-02-21T07:30:35;9.53;;;5.03;;
1651;SDS011;823;49.028;8.454;2023-02-21T07:35:35;13.82;;;4.75;;
1651;SDS011;823;49.028;8.454;2023-02-21T07:40:35;14.60;;;6.65;;
1651;SDS011;823;49.028;8.454;2023-02-21T07:45:36;13.30;;;5.18;;
1651;SDS011;823;49.028;8.454;2023-02-21T07:50:36;11.82;;;6.63;;
1651;SDS011;823;49.028;8.454;2023-02-21T07:55:36;7.05;;;4.80;;
1651;SDS011;823;49.028;8.454;2023-02-21T08:00:36;10.17;;;5.17;;
1651;SDS011;823;49.028;8.454;2023-02-21T08:05:37;13.63;;;5.97;;
1651;SDS011;823;49.028;8.454;2023-02-21T08:10:37;12.17;;;5.90;;
1651;SDS011;823;49.028;8.454;2023-02-21T08:15:37;15.37;;;5.73;;
1651;SDS011;823;49.028;8.454;2023-02-21T08:20:38;13.27;;;6.40;;
1651;SDS011;823;49.028;8.454;2023-02-21T08:25:38;16.17;;;6.13;;
1651;SDS011;823;49.028;8.454;2023-02-21T08:30:38;12.90;;;5.10;;
1651;SDS011;823;49.028;8.454;2023-02-21T08:35:39;9.83;;;5.70;;
1651;SDS011;823;49.028;8.454;2023-02-21T08:40:39;11.27;;;5.80;;
1651;SDS011;823;49.028;8.454;2023-02-21T08:45:40;9.90;;;5.00;;
1651;SDS011;823;49.028;8.454;2023-02-21T08:50:40;18.67;;;5.53;;
1651;SDS011;823;49.028;8.454;2023-02-21T08:55:40;9.33;;;4.30;;
1651;SDS011;823;49.028;8.454;2023-02-21T09:00:42;8.50;;;4.40;;
1651;SDS011;823;49.028;8.454;2023-02-21T09:05:42;7.50;;;4.03;;
1651;SDS011;823;49.028;8.454;2023-02-21T09:10:42;6.77;;;4.40;;
1651;SDS011;823;49.028;8.454;2023-02-21T09:15:46;9.80;;;4.27;;
1651;SDS011;823;49.028;8.454;2023-02-21T09:20:46;7.70;;;4.47;;
1651;SDS011;823;49.028;8.454;2023-02-21T09:25:50;10.70;;;4.50;;
1651;SDS011;823;49.028;8.454;2023-02-21T09:30:51;7.70;;;4.03;;
1651;SDS011;823;49.028;8.454;2023-02-21T09:35:51;19.47;;;5.40;;
1651;SDS011;823;49.028;8.454;2023-02-21T09:40:57;13.30;;;4.73;;
1651;SDS011;823;49.028;8.454;2023-02-21T09:46:01;14.10;;;4.37;;
1651;SDS011;823;49.028;8.454;2023-02-21T09:51:06;7.27;;;4.47;;
1651;SDS011;823;49.028;8.454;2023-02-21T09:56:12;13.20;;;4.30;;
1651;SDS011;823;49.028;8.454;2023-02-21T10:06:42;10.63;;;4.37;;
1651;SDS011;823;49.028;8.454;2023-02-21T10:22:27;11.23;;;4.40;;
1651;SDS011;823;49.028;8.454;2023-02-21T10:27:32;11.57;;;4.20;;
1651;SDS011;823;49.028;8.454;2023-02-21T10:32:33;11.37;;;4.10;;
1651;SDS011;823;49.028;8.454;2023-02-21T10:37:38;12.75;;;4.80;;
1651;SDS011;823;49.028;8.454;2023-02-21T10:42:42;9.13;;;4.10;;
1651;SDS011;823;49.028;8.454;2023-02-21T10:48:00;10.10;;;4.40;;
1651;SDS011;823;49.028;8.454;2023-02-21T10:53:06;15.10;;;4.23;;
1651;SDS011;823;49.028;8.454;2023-02-21T10:58:09;17.10;;;4.60;;
1651;SDS011;823;49.028;8.454;2023-02-21T11:13:38;7.47;;;3.97;;
1651;SDS011;823;49.028;8.454;2023-02-21T11:18:38;10.75;;;4.05;;
1651;SDS011;823;49.028;8.454;2023-02-21T11:23:43;9.63;;;3.97;;
1651;SDS011;823;49.028;8.454;2023-02-21T11:28:47;10.87;;;4.27;;
1651;SDS011;823;49.028;8.454;2023-02-21T11:33:54;5.80;;;3.40;;
1651;SDS011;823;49.028;8.454;2023-02-21T11:44:21;5.70;;;3.50;;
1651;SDS011;823;49.028;8.454;2023-02-21T11:49:23;13.00;;;4.13;;
1651;SDS011;823;49.028;8.454;2023-02-21T11:54:32;6.63;;;3.70;;
1651;SDS011;823;49.028;8.454;2023-02-21T12:15:44;6.33;;;3.07;;
1651;SDS011;823;49.028;8.454;2023-02-21T12:20:58;10.02;;;3.47;;
1651;SDS011;823;49.028;8.454;2023-02-21T12:32:03;10.97;;;2.43;;
1651;SDS011;823;49.028;8.454;2023-02-21T12:37:06;8.57;;;3.50;;
1651;SDS011;823;49.028;8.454;2023-02-21T12:47:49;6.23;;;2.80;;
1651;SDS011;823;49.028;8.454;2023-02-21T13:14:19;5.00;;;2.03;;
1651;SDS011;823;49.028;8.454;2023-02-21T13:19:25;2.93;;;2.10;;
1651;SDS011;823;49.028;8.454;2023-02-21T13:29:44;6.63;;;1.40;;
1651;SDS011;823;49.028;8.454;2023-02-21T13:34:46;5.57;;;2.30;;
1651;SDS011;823;49.028;8.454;2023-02-21T13:39:53;1.90;;;1.20;;
1651;SDS011;823;49.028;8.454;2023-02-21T13:45:21;6.33;;;1.57;;
1651;SDS011;823;49.028;8.454;2023-02-21T13:55:38;6.93;;;1.63;;
1651;SDS011;823;49.028;8.454;2023-02-21T14:10:49;3.20;;;1.70;;
1651;SDS011;823;49.028;8.454;2023-02-21T14:15:59;3.10;;;1.63;;
1651;SDS011;823;49.028;8.454;2023-02-21T14:21:09;2.57;;;1.47;;
1651;SDS011;823;49.028;8.454;2023-02-21T14:31:49;2.00;;;0.90;;
1651;SDS011;823;49.028;8.454;2023-02-21T14:36:56;4.17;;;1.27;;
1651;SDS011;823;49.028;8.454;2023-02-21T14:47:25;1.63;;;1.20;;
1651;SDS011;823;49.028;8.454;2023-02-21T15:03:23;2.63;;;1.10;;
1651;SDS011;823;49.028;8.454;2023-02-21T15:08:28;2.27;;;1.30;;
1651;SDS011;823;49.028;8.454;2023-02-21T15:14:09;2.60;;;1.20;;
1651;SDS011;823;49.028;8.454;2023-02-21T15:19:27;2.27;;;1.30;;
1651;SDS011;823;49.028;8.454;2023-02-21T15:24:32;3.00;;;1.10;;
1651;SDS011;823;49.028;8.454;2023-02-21T15:29:33;7.47;;;0.90;;
1651;SDS011;823;49.028;8.454;2023-02-21T15:34:37;1.53;;;1.00;;
1651;SDS011;823;49.028;8.454;2023-02-21T15:39:40;1.80;;;1.17;;
1651;SDS011;823;49.028;8.454;2023-02-21T15:44:47;2.20;;;1.03;;
1651;SDS011;823;49.028;8.454;2023-02-21T16:05:24;1.63;;;0.97;;
1651;SDS011;823;49.028;8.454;2023-02-21T16:10:26;2.00;;;1.30;;
1651;SDS011;823;49.028;8.454;2023-02-21T16:15:30;2.80;;;1.03;;
1651;SDS011;823;49.028;8.454;2023-02-21T16:20:34;1.83;;;0.90;;
1651;SDS011;823;49.028;8.454;2023-02-21T16:25:52;2.13;;;1.23;;
1651;SDS011;823;49.028;8.454;2023-02-21T16:30:53;2.00;;;1.27;;
1651;SDS011;823;49.028;8.454;2023-02-21T16:35:58;5.23;;;1.80;;
1651;SDS011;823;49.028;8.454;2023-02-21T16:40:59;4.00;;;1.67;;
1651;SDS011;823;49.028;8.454;2023-02-21T16:46:00;11.30;;;1.90;;
1651;SDS011;823;49.028;8.454;2023-02-21T16:51:02;3.83;;;1.40;;
1651;SDS011;823;49.028;8.454;2023-02-21T16:56:04;5.80;;;2.30;;
1651;SDS011;823;49.028;8.454;2023-02-21T17:01:06;4.13;;;2.60;;
1651;SDS011;823;49.028;8.454;2023-02-21T17:06:16;5.17;;;2.67;;
1651;SDS011;823;49.028;8.454;2023-02-21T17:11:19;7.53;;;3.03;;
1651;SDS011;823;49.028;8.454;2023-02-21T17:16:20;6.50;;;2.50;;
1651;SDS011;823;49.028;8.454;2023-02-21T17:21:20;6.33;;;2.93;;
1651;SDS011;823;49.028;8.454;2023-02-21T17:26:21;5.70;;;2.80;;
1651;SDS011;823;49.028;8.454;2023-02-21T17:31:21;7.05;;;2.78;;
1651;SDS011;823;49.028;8.454;2023-02-21T17:36:22;10.40;;;3.60;;
1651;SDS011;823;49.028;8.454;2023-02-21T17:41:25;7.60;;;3.40;;
1651;SDS011;823;49.028;8.454;2023-02-21T17:46:26;9.80;;;2.97;;
1651;SDS011;823;49.028;8.454;2023-02-21T17:51:26;7.03;;;3.58;;
1651;SDS011;823;49.028;8.454;2023-02-21T17:56:27;7.88;;;3.35;;
1651;SDS011;823;49.028;8.454;2023-02-21T18:01:27;9.70;;;3.90;;
1651;SDS011;823;49.028;8.454;2023-02-21T18:06:28;7.77;;;4.30;;
1651;SDS011;823;49.028;8.454;2023-02-21T18:11:29;12.27;;;4.43;;
1651;SDS011;823;49.028;8.454;2023-02-21T18:16:29;26.27;;;8.20;;
1651;SDS011;823;49.028;8.454;2023-02-21T18:21:30;23.10;;;7.40;;
1651;SDS011;823;49.028;8.454;2023-02-21T18:26:30;19.60;;;6.43;;
1651;SDS011;823;49.028;8.454;2023-02-21T18:31:31;12.52;;;4.70;;
1651;SDS011;823;49.028;8.454;2023-02-21T18:36:33;11.63;;;4.47;;
1651;SDS011;823;49.028;8.454;2023-02-21T18:41:34;10.15;;;5.03;;
1651;SDS011;823;49.028;8.454;2023-02-21T18:46:34;10.50;;;5.10;;
1651;SDS011;823;49.028;8.454;2023-02-21T18:51:37;13.50;;;5.50;;
1651;SDS011;823;49.028;8.454;2023-02-21T18:56:37;12.82;;;5.40;;
1651;SDS011;823;49.028;8.454;2023-02-21T19:01:38;11.05;;;5.50;;
1651;SDS011;823;49.028;8.454;2023-02-21T19:06:38;14.15;;;4.57;;
1651;SDS011;823;49.028;8.454;2023-02-21T19:11:38;12.83;;;5.33;;
1651;SDS011;823;49.028;8.454;2023-02-21T19:16:39;21.27;;;7.20;;
1651;SDS011;823;49.028;8.454;2023-02-21T19:21:39;23.10;;;10.13;;
1651;SDS011;823;49.028;8.454;2023-02-21T19:26:39;20.98;;;8.35;;
1651;SDS011;823;49.028;8.454;2023-02-21T19:31:41;19.27;;;7.60;;
1651;SDS011;823;49.028;8.454;2023-02-21T19:36:41;17.70;;;5.90;;
1651;SDS011;823;49.028;8.454;2023-02-21T19:41:42;11.80;;;5.60;;
1651;SDS011;823;49.028;8.454;2023-02-21T19:46:42;12.33;;;4.80;;
1651;SDS011;823;49.028;8.454;2023-02-21T19:51:47;10.60;;;5.50;;
1651;SDS011;823;49.028;8.454;2023-02-21T19:56:49;13.60;;;6.03;;
1651;SDS011;823;49.028;8.454;2023-02-21T20:01:50;16.47;;;6.30;;
1651;SDS011;823;49.028;8.454;2023-02-21T20:06:50;23.13;;;6.37;;
1651;SDS011;823;49.028;8.454;2023-02-21T20:11:50;21.70;;;7.22;;
1651;SDS011;823;49.028;8.454;2023-02-21T20:16:51;18.85;;;7.20;;
1651;SDS011;823;49.028;8.454;2023-02-21T20:21:52;18.30;;;7.00;;
1651;SDS011;823;49.028;8.454;2023-02-21T20:26:53;20.13;;;7.43;;
1651;SDS011;823;49.028;8.454;2023-02-21T20:31:53;13.07;;;6.17;;
1651;SDS011;823;49.028;8.454;2023-02-21T20:36:54;14.90;;;6.47;;
1651;SDS011;823;49.028;8.454;2023-02-21T20:41:57;16.80;;;7.10;;
1651;SDS011;823;49.028;8.454;2023-02-21T20:46:59;18.47;;;7.40;;
1651;SDS011;823;49.028;8.454;2023-02-21T20:52:00;16.27;;;6.60;;
1651;SDS011;823;49.028;8.454;2023-02-21T20:57:01;15.80;;;6.80;;
1651;SDS011;823;49.028;8.454;2023-02-21T21:02:01;15.70;;;6.70;;
1651;SDS011;823;49.028;8.454;2023-02-21T21:07:03;23.20;;;8.10;;
1651;SDS011;823;49.028;8.454;2023-02-21T21:12:13;16.23;;;7.30;;
1651;SDS011;823;49.028;8.454;2023-02-21T21:17:17;14.83;;;6.60;;
1651;SDS011;823;49.028;8.454;2023-02-21T21:22:23;13.73;;;6.10;;
1651;SDS011;823;49.028;8.454;2023-02-21T21:27:24;18.93;;;7.43;;
1651;SDS011;823;49.028;8.454;2023-02-21T21:32:25;27.00;;;7.77;;
1651;SDS011;823;49.028;8.454;2023-02-21T21:37:27;16.73;;;7.50;;
1651;SDS011;823;49.028;8.454;2023-02-21T21:42:28;24.23;;;7.50;;
1651;SDS011;823;49.028;8.454;2023-02-21T21:47:29;15.88;;;8.70;;
1651;SDS011;823;49.028;8.454;2023-02-21T21:52:31;19.53;;;9.37;;
1651;SDS011;823;49.028;8.454;2023-02-21T21:57:31;17.10;;;7.83;;
1651;SDS011;823;49.028;8.454;2023-02-21T22:02:32;20.90;;;8.33;;
1651;SDS011;823;49.028;8.454;2023-02-21T22:07:32;13.68;;;7.25;;
1651;SDS011;823;49.028;8.454;2023-02-21T22:12:32;15.80;;;6.53;;
1651;SDS011;823;49.028;8.454;2023-02-21T22:17:33;20.00;;;7.97;;
1651;SDS011;823;49.028;8.454;2023-02-21T22:22:33;20.08;;;7.53;;
1651;SDS011;823;49.028;8.454;2023-02-21T22:27:33;14.68;;;7.13;;
1651;SDS011;823;49.028;8.454;2023-02-21T22:32:34;13.73;;;6.90;;
1651;SDS011;823;49.028;8.454;2023-02-21T22:37:35;15.13;;;6.27;;
1651;SDS011;823;49.028;8.454;2023-02-21T22:42:35;14.75;;;7.32;;
1651;SDS011;823;49.028;8.454;2023-02-21T22:47:35;19.20;;;7.40;;
1651;SDS011;823;49.028;8.454;2023-02-21T22:52:36;13.10;;;7.40;;
1651;SDS011;823;49.028;8.454;2023-02-21T22:57:36;17.77;;;8.65;;
1651;SDS011;823;49.028;8.454;2023-02-21T23:02:37;21.60;;;8.25;;
1651;SDS011;823;49.028;8.454;2023-02-21T23:07:37;15.20;;;8.18;;
1651;SDS011;823;49.028;8.454;2023-02-21T23:12:37;17.77;;;7.80;;
1651;SDS011;823;49.028;8.454;2023-02-21T23:17:37;18.42;;;7.43;;
1651;SDS011;823;49.028;8.454;2023-02-21T23:22:38;17.00;;;6.47;;
1651;SDS011;823;49.028;8.454;2023-02-21T23:27:38;13.45;;;5.63;;
1651;SDS011;823;49.028;8.454;2023-02-21T23:32:38;14.65;;;5.75;;
1651;SDS011;823;49.028;8.454;2023-02-21T23:37:39;13.00;;;5.17;;
1651;SDS011;823;49.028;8.454;2023-02-21T23:42:42;14.90;;;5.23;;
1651;SDS011;823;49.028;8.454;2023-02-21T23:47:44;19.17;;;5.70;;
1651;SDS011;823;49.028;8.454;2023-02-21T23:52:48;9.45;;;4.97;;
1651;SDS011;823;49.028;8.454;2023-02-21T23:57:50;12.53;;;4.80;;
